This is the latest recevied weather packets stored in our database for station/object LA9UTA-13. If no packets are shown the sender has not sent any weather packets the latest 10 day(s).
| Time | Temp. | Humidity | Pressure | Rain* | Wind** | Luminosity | Snow |
|---|---|---|---|---|---|---|---|
| 1777935482 | 3.33° C | 66% | 1006.8 hPa | 0 mm | - | 0 W/m² | - |
| 1777934744 | 2.78° C | 69% | 1006.8 hPa | 0 mm | - | 0 W/m² | - |
| 1777934282 | 2.78° C | 69% | 1006.8 hPa | 0 mm | - | 0 W/m² | - |
| 1777933839 | 3.33° C | 68% | 1006.8 hPa | 0 mm | - | 0 W/m² | - |
| 1777933082 | 3.33° C | 68% | 1006.8 hPa | 0 mm | - | 0 W/m² | - |
| 1777931882 | 3.33° C | 70% | 1006.8 hPa | 0 mm | - | 0 W/m² | - |
| 1777930682 | 3.33° C | 75% | 1006.8 hPa | 0 mm | - | 0 W/m² | - |
| 1777930229 | 3.33° C | 78% | 1006.8 hPa | 0 mm | - | 0 W/m² | - |
| 1777929482 | 3.33° C | 78% | 1006.8 hPa | 0 mm | - | 0 W/m² | - |
| 1777929331 | 3.89° C | 75% | 1006.7 hPa | 0 mm | - | 0 W/m² | - |
| 1777928281 | 3.89° C | 76% | 1006.8 hPa | 0 mm | - | 0 W/m² | - |
| 1777927082 | 3.89° C | 75% | 1006.7 hPa | 0 mm | - | 0 W/m² | - |
| 1777925882 | 4.44° C | 77% | 1005.7 hPa | 0 mm | - | 0 W/m² | - |
| 1777924682 | 4.44° C | 78% | 1005.7 hPa | 0 mm | - | 0 W/m² | - |
| 1777923481 | 4.44° C | 81% | 1005.7 hPa | 0 mm | - | 1 W/m² | - |
| 1777922281 | 5° C | 81% | 1004.6 hPa | 0 mm | - | 4 W/m² | - |
| 1777921082 | 5.56° C | 80% | 1004.6 hPa | 0 mm | - | 16 W/m² | - |
| 1777919882 | 9.44° C | 57% | 1003.1 hPa | 0 mm | - | 10 W/m² | - |
| 1777918683 | 9.44° C | 54% | 1003.1 hPa | 0 mm | - | 40 W/m² | - |
| 1777917482 | 10.56° C | 50% | 1003 hPa | 0 mm | - | 41 W/m² | - |
| 1777916282 | 10.56° C | 48% | 1003 hPa | 0 mm | - | 46 W/m² | - |
| 1777915081 | 11.11° C | 47% | 1003 hPa | 0 mm | - | 81 W/m² | - |
| 1777913881 | 11.11° C | 46% | 1003 hPa | 0 mm | - | 82 W/m² | - |
| 1777912682 | 11.67° C | 42% | 1003 hPa | 0 mm | - | 46 W/m² | - |
| 1777911481 | 11.67° C | 44% | 1003 hPa | 0 mm | - | 110 W/m² | - |
* Rain latest hour (hover to see other rain measurements)
** Current wind speed in m/s (hover to see current wind gust speed)